createdAt,value
2022-07-27T00:01:16.215Z,100389.22
2022-07-27T00:04:17.756Z,100387.28
2022-07-27T00:07:19.230Z,100392.16
2022-07-27T00:10:20.645Z,100393.16
2022-07-27T00:13:22.122Z,100386.22
2022-07-27T00:16:23.663Z,100387.19
2022-07-27T00:19:25.559Z,100393.88
2022-07-27T00:22:27.337Z,100393.03
2022-07-27T00:25:29.014Z,100396.03
2022-07-27T00:28:30.866Z,100398.00
2022-07-27T00:31:32.390Z,100402.97
2022-07-27T00:34:34.203Z,100399.22
2022-07-27T00:37:35.826Z,100409.94
2022-07-27T00:40:37.314Z,100404.56
2022-07-27T00:43:58.980Z,100406.84
2022-07-27T00:47:00.500Z,100417.06
2022-07-27T00:50:02.014Z,100418.19
2022-07-27T00:53:04.916Z,100411.50
2022-07-27T00:56:06.967Z,100413.22
2022-07-27T00:59:11.880Z,100414.66
2022-07-27T01:02:19.256Z,100405.22
2022-07-27T01:05:21.253Z,100413.75
2022-07-27T01:08:23.225Z,100413.03
2022-07-27T01:11:24.626Z,100409.81
2022-07-27T01:14:28.556Z,100409.34
2022-07-27T01:17:30.888Z,100401.44
2022-07-27T01:20:33.688Z,100410.09
2022-07-27T01:23:35.403Z,100407.78
2022-07-27T01:26:38.858Z,100409.13
2022-07-27T01:29:40.381Z,100402.97
2022-07-27T01:32:41.788Z,100405.91
2022-07-27T01:35:43.683Z,100402.97
2022-07-27T01:38:45.399Z,100398.88
2022-07-27T01:41:47.551Z,100400.59
2022-07-27T01:44:49.009Z,100403.13
2022-07-27T01:47:50.425Z,100396.09
2022-07-27T01:50:52.921Z,100390.00
2022-07-27T01:53:54.448Z,100394.50
2022-07-27T01:56:55.962Z,100394.75
2022-07-27T01:59:57.466Z,100395.22
2022-07-27T02:02:59.220Z,100391.66
2022-07-27T02:06:00.901Z,100385.06
2022-07-27T02:09:02.306Z,100392.28
2022-07-27T02:12:22.373Z,100388.13
2022-07-27T02:15:26.027Z,100391.28
2022-07-27T02:18:36.340Z,100386.97
2022-07-27T02:21:38.442Z,100386.63
2022-07-27T02:24:39.915Z,100389.00
2022-07-27T02:27:42.582Z,100391.22
2022-07-27T02:30:44.027Z,100385.59
2022-07-27T02:33:45.455Z,100389.22
2022-07-27T02:36:46.914Z,100381.72
2022-07-27T02:39:49.509Z,100382.91
2022-07-27T02:42:50.931Z,100379.81
2022-07-27T02:45:52.400Z,100387.34
2022-07-27T02:48:54.153Z,100386.84
2022-07-27T02:51:55.842Z,100392.09
2022-07-27T02:54:57.275Z,100387.25
2022-07-27T02:57:58.709Z,100385.78
2022-07-27T03:01:00.141Z,100389.94
2022-07-27T03:04:01.628Z,100395.34
2022-07-27T03:07:03.513Z,100396.34
2022-07-27T03:10:05.632Z,100393.88
2022-07-27T03:13:07.252Z,100392.66
2022-07-27T03:16:08.801Z,100384.13
2022-07-27T03:19:10.529Z,100383.09
2022-07-27T03:22:12.153Z,100383.22
2022-07-27T03:25:13.640Z,100376.72
2022-07-27T03:28:15.168Z,100381.69
2022-07-27T03:31:16.746Z,100381.69
2022-07-27T03:34:18.359Z,100381.78
2022-07-27T03:37:20.874Z,100382.38
2022-07-27T03:40:22.414Z,100389.41
2022-07-27T03:43:24.038Z,100387.50
2022-07-27T03:46:25.490Z,100395.41
2022-07-27T03:49:27.203Z,100388.56
2022-07-27T03:52:28.954Z,100384.50
2022-07-27T03:55:30.786Z,100387.53
2022-07-27T03:58:32.193Z,100391.91
2022-07-27T04:01:33.697Z,100385.06
2022-07-27T04:04:35.252Z,100384.31
2022-07-27T04:07:36.765Z,100397.69
2022-07-27T04:10:38.189Z,100401.41
2022-07-27T04:13:39.645Z,100395.41
2022-07-27T04:16:41.365Z,100390.50
2022-07-27T04:19:43.129Z,100398.03
2022-07-27T04:22:44.598Z,100401.66
2022-07-27T04:25:46.223Z,100399.72
2022-07-27T04:28:47.673Z,100391.81
2022-07-27T04:31:49.262Z,100393.53
2022-07-27T04:34:50.686Z,100397.28
2022-07-27T04:37:58.216Z,100401.41
2022-07-27T04:41:01.068Z,100404.22
2022-07-27T04:44:02.833Z,100416.84
2022-07-27T04:47:04.391Z,100416.41
2022-07-27T04:50:06.471Z,100417.38
2022-07-27T04:53:08.863Z,100418.34
2022-07-27T04:56:10.437Z,100411.50
2022-07-27T04:59:12.225Z,100418.84
2022-07-27T05:02:14.111Z,100413.50
2022-07-27T05:05:15.553Z,100423.25
2022-07-27T05:08:18.100Z,100421.25
2022-07-27T05:11:19.545Z,100426.59
2022-07-27T05:14:21.881Z,100429.91
2022-07-27T05:17:23.512Z,100426.16
2022-07-27T05:20:25.174Z,100428.84
2022-07-27T05:23:26.588Z,100423.47
2022-07-27T05:26:28.011Z,100432.22
2022-07-27T05:29:29.469Z,100439.31
2022-07-27T05:32:30.974Z,100445.50
2022-07-27T05:35:32.502Z,100442.22
2022-07-27T05:38:39.154Z,100450.13
2022-07-27T05:41:40.713Z,100450.97
2022-07-27T05:44:42.141Z,100452.34
2022-07-27T05:47:43.649Z,100455.53
2022-07-27T05:50:45.063Z,100457.25
2022-07-27T05:53:46.560Z,100455.03
2022-07-27T05:56:48.002Z,100456.63
2022-07-27T05:59:54.129Z,100466.91
2022-07-27T06:02:55.591Z,100461.88
2022-07-27T06:06:17.068Z,100472.91
2022-07-27T06:09:18.507Z,100467.88
2022-07-27T06:12:20.369Z,100471.50
2022-07-27T06:15:22.736Z,100468.03
2022-07-27T06:18:24.135Z,100479.31
2022-07-27T06:21:27.953Z,100471.28
2022-07-27T06:24:29.455Z,100477.34
2022-07-27T06:27:34.802Z,100480.78
2022-07-27T06:30:39.018Z,100487.41
2022-07-27T06:33:40.867Z,100491.53
2022-07-27T06:36:45.119Z,100491.41
2022-07-27T06:39:46.606Z,100499.25
2022-07-27T06:42:48.416Z,100487.63
2022-07-27T06:45:50.178Z,100493.69
2022-07-27T06:48:53.044Z,100489.88
2022-07-27T06:51:54.498Z,100494.44
2022-07-27T06:54:56.486Z,100499.34
2022-07-27T06:57:58.014Z,100496.81
2022-07-27T07:01:02.160Z,100502.94
2022-07-27T07:04:03.937Z,100499.28
2022-07-27T07:07:07.283Z,100498.38
2022-07-27T07:10:09.168Z,100502.44
2022-07-27T07:13:11.313Z,100499.97
2022-07-27T07:16:13.401Z,100504.75
2022-07-27T07:19:15.616Z,100500.69
2022-07-27T07:22:17.134Z,100504.72
2022-07-27T07:25:18.607Z,100507.97
2022-07-27T07:28:22.924Z,100500.09
2022-07-27T07:31:24.637Z,100507.81
2022-07-27T07:34:26.259Z,100503.09
2022-07-27T07:37:33.434Z,100504.44
2022-07-27T07:40:44.606Z,100493.69
2022-07-27T07:43:46.517Z,100503.06
2022-07-27T07:46:48.078Z,100507.31
2022-07-27T07:49:50.300Z,100504.69
2022-07-27T07:52:53.663Z,100500.16
2022-07-27T07:55:59.828Z,100494.06
2022-07-27T07:59:04.757Z,100507.72
2022-07-27T08:02:06.404Z,100492.09
2022-07-27T08:05:08.535Z,100495.63
2022-07-27T08:08:10.276Z,100497.34
2022-07-27T08:11:11.865Z,100500.28
2022-07-27T08:14:13.278Z,100497.22
2022-07-27T08:17:14.836Z,100505.28
2022-07-27T08:20:17.685Z,100510.53
2022-07-27T08:23:19.585Z,100515.91
2022-07-27T08:26:21.261Z,100511.25
2022-07-27T08:29:23.919Z,100498.81
2022-07-27T08:32:57.674Z,100504.44
2022-07-27T08:35:59.559Z,100509.06
2022-07-27T08:39:06.162Z,100502.72
2022-07-27T08:42:10.026Z,100508.34
2022-07-27T08:45:16.159Z,100503.47
2022-07-27T08:48:18.751Z,100503.47
2022-07-27T08:51:24.085Z,100506.63
2022-07-27T08:54:25.896Z,100503.94
2022-07-27T08:57:27.382Z,100505.66
2022-07-27T09:00:29.604Z,100505.66
2022-07-27T09:03:31.069Z,100503.56
2022-07-27T09:06:42.578Z,100502.81
2022-07-27T09:09:46.034Z,100501.72
2022-07-27T09:12:47.485Z,100498.06
2022-07-27T09:16:16.839Z,100497.28
2022-07-27T09:19:16.875Z,100495.81
2022-07-27T09:22:38.722Z,100497.25
2022-07-27T09:26:02.189Z,100495.03
2022-07-27T09:29:09.203Z,100489.84
2022-07-27T09:32:16.947Z,100497.28
2022-07-27T09:35:37.793Z,100502.72
2022-07-27T09:39:05.588Z,100490.81
2022-07-27T09:43:02.824Z,100493.66
2022-07-27T09:45:39.164Z,100489.16
2022-07-27T09:52:02.182Z,100492.84
2022-07-27T09:55:06.086Z,100485.06
2022-07-27T09:58:07.622Z,100489.25
2022-07-27T10:01:18.485Z,100480.38
2022-07-27T10:04:20.169Z,100485.97
2022-07-27T10:07:21.666Z,100486.00
2022-07-27T10:10:24.038Z,100494.19
2022-07-27T10:13:25.513Z,100498.25
2022-07-27T10:16:30.066Z,100496.44
2022-07-27T10:19:44.854Z,100492.50
2022-07-27T10:22:51.272Z,100487.19
2022-07-27T10:26:14.165Z,100492.78
2022-07-27T10:29:18.154Z,100497.34
2022-07-27T10:32:24.418Z,100500.31
2022-07-27T10:35:33.793Z,100499.22
2022-07-27T10:38:46.891Z,100503.16
2022-07-27T10:41:48.431Z,100497.72
2022-07-27T10:45:01.356Z,100511.84
2022-07-27T10:48:02.997Z,100508.13
2022-07-27T10:51:08.490Z,100504.69
2022-07-27T10:54:35.574Z,100503.03
2022-07-27T10:57:37.573Z,100503.47
2022-07-27T11:00:55.180Z,100497.53
2022-07-27T11:04:08.985Z,100496.75
2022-07-27T11:07:34.260Z,100504.34
2022-07-27T11:10:43.482Z,100501.19
2022-07-27T11:13:46.211Z,100497.34
2022-07-27T11:16:55.456Z,100496.69
2022-07-27T11:19:59.897Z,100502.19
2022-07-27T11:26:47.952Z,100500.25
2022-07-27T11:29:49.358Z,100496.25
2022-07-27T11:32:51.090Z,100507.88
2022-07-27T11:36:01.614Z,100495.78
2022-07-27T11:39:03.946Z,100487.44
2022-07-27T11:42:08.428Z,100490.25
2022-07-27T11:45:28.496Z,100487.13
2022-07-27T11:48:49.558Z,100484.47
2022-07-27T11:51:51.669Z,100476.63
2022-07-27T11:54:53.086Z,100482.44
2022-07-27T11:58:04.210Z,100481.47
2022-07-27T12:01:05.658Z,100469.28
2022-07-27T12:04:18.870Z,100477.66
2022-07-27T12:07:33.695Z,100479.88
2022-07-27T12:10:37.685Z,100473.22
2022-07-27T12:13:39.350Z,100473.50
2022-07-27T12:16:40.933Z,100473.38
2022-07-27T12:19:49.686Z,100469.50
2022-07-27T12:22:52.853Z,100458.41
2022-07-27T12:25:54.272Z,100459.53
2022-07-27T12:29:11.401Z,100467.06
2022-07-27T12:32:15.410Z,100464.09
2022-07-27T12:35:26.129Z,100459.50
2022-07-27T12:38:50.418Z,100464.47
2022-07-27T12:42:06.376Z,100467.22
2022-07-27T12:45:13.283Z,100459.28
2022-07-27T12:48:16.959Z,100461.72
2022-07-27T12:51:23.721Z,100452.47
2022-07-27T12:54:25.215Z,100441.59
2022-07-27T12:57:53.573Z,100439.94
2022-07-27T13:00:49.546Z,100433.28
2022-07-27T13:03:51.127Z,100433.31
2022-07-27T13:06:52.657Z,100431.31
2022-07-27T13:10:03.288Z,100434.53
2022-07-27T13:13:07.277Z,100425.38
2022-07-27T13:16:08.910Z,100425.16
2022-07-27T13:19:11.463Z,100432.44
2022-07-27T13:22:13.267Z,100429.94
2022-07-27T13:25:17.236Z,100431.41
2022-07-27T13:28:19.061Z,100418.38
2022-07-27T13:31:20.820Z,100417.91
2022-07-27T13:34:22.345Z,100409.31
2022-07-27T13:37:23.765Z,100415.50
2022-07-27T13:40:25.294Z,100398.22
2022-07-27T13:43:26.731Z,100399.41
2022-07-27T13:46:28.598Z,100405.97
2022-07-27T13:49:30.101Z,100401.06
2022-07-27T13:52:31.582Z,100406.78
2022-07-27T13:55:33.023Z,100398.78
2022-07-27T13:58:34.828Z,100402.50
2022-07-27T14:01:38.124Z,100401.75
2022-07-27T14:04:42.396Z,100394.84
2022-07-27T14:07:45.178Z,100383.63
2022-07-27T14:10:46.654Z,100392.25
2022-07-27T14:13:48.117Z,100389.44
2022-07-27T14:16:49.672Z,100382.34
2022-07-27T14:19:51.202Z,100385.47
2022-07-27T14:22:52.676Z,100383.81
2022-07-27T14:25:55.526Z,100387.72
2022-07-27T14:28:57.657Z,100385.28
2022-07-27T14:31:59.281Z,100383.09
2022-07-27T14:35:00.753Z,100390.84
2022-07-27T14:38:02.187Z,100396.16
2022-07-27T14:41:04.418Z,100399.34
2022-07-27T14:44:05.846Z,100403.28
2022-07-27T14:47:07.673Z,100403.44
2022-07-27T14:50:09.608Z,100401.94
2022-07-27T14:53:11.139Z,100401.91
2022-07-27T14:56:12.708Z,100397.50
2022-07-27T14:59:14.786Z,100396.78
2022-07-27T15:02:16.584Z,100396.88
2022-07-27T15:05:18.092Z,100390.25
2022-07-27T15:08:20.461Z,100395.97
2022-07-27T15:11:21.943Z,100384.31
2022-07-27T15:14:23.508Z,100385.50
2022-07-27T15:17:25.071Z,100379.25
2022-07-27T15:20:26.534Z,100377.63
2022-07-27T15:23:28.000Z,100377.34
2022-07-27T15:26:33.395Z,100366.16
2022-07-27T15:29:36.453Z,100370.84
2022-07-27T15:32:37.950Z,100370.00
2022-07-27T15:35:39.442Z,100360.66
2022-07-27T15:38:42.420Z,100364.25
2022-07-27T15:41:43.885Z,100364.06
2022-07-27T15:44:45.330Z,100355.97
2022-07-27T15:47:52.559Z,100360.66
2022-07-27T15:50:54.612Z,100365.38
2022-07-27T15:53:56.976Z,100355.63
2022-07-27T15:56:58.458Z,100354.91
2022-07-27T15:59:59.959Z,100353.00
2022-07-27T16:03:01.540Z,100349.31
2022-07-27T16:06:04.002Z,100352.13
2022-07-27T16:09:06.500Z,100352.81
2022-07-27T16:12:08.332Z,100354.31
2022-07-27T16:15:10.385Z,100350.28
2022-07-27T16:18:12.365Z,100347.50
2022-07-27T16:21:14.280Z,100344.97
2022-07-27T16:24:15.865Z,100330.03
2022-07-27T16:27:17.410Z,100330.44
2022-07-27T16:30:20.476Z,100324.16
2022-07-27T16:33:22.652Z,100325.19
2022-07-27T16:36:24.530Z,100321.88
2022-07-27T16:39:26.927Z,100335.94
2022-07-27T16:42:28.352Z,100316.41
2022-07-27T16:45:30.125Z,100323.56
2022-07-27T16:48:38.360Z,100318.69
2022-07-27T16:51:43.582Z,100322.03
2022-07-27T16:54:45.120Z,100323.84
2022-07-27T16:57:46.643Z,100323.34
2022-07-27T17:00:48.127Z,100325.03
2022-07-27T17:03:49.631Z,100321.09
2022-07-27T17:06:51.130Z,100322.94
2022-07-27T17:09:52.777Z,100326.19
2022-07-27T17:12:55.787Z,100320.97
2022-07-27T17:16:00.735Z,100316.28
2022-07-27T17:19:02.250Z,100322.38
2022-07-27T17:22:04.090Z,100318.94
2022-07-27T17:25:06.267Z,100328.13
2022-07-27T17:28:07.763Z,100330.22
2022-07-27T17:31:12.256Z,100327.84
2022-07-27T17:34:13.778Z,100330.84
2022-07-27T17:37:15.311Z,100330.06
2022-07-27T17:40:16.776Z,100319.97
2022-07-27T17:43:18.704Z,100326.06
2022-07-27T17:46:20.330Z,100329.47
2022-07-27T17:49:22.060Z,100323.81
2022-07-27T17:52:23.592Z,100318.72
2022-07-27T17:55:25.562Z,100321.88
2022-07-27T17:58:30.226Z,100317.31
2022-07-27T18:01:47.315Z,100321.97
2022-07-27T18:04:49.381Z,100330.47
2022-07-27T18:07:52.033Z,100328.97
2022-07-27T18:10:53.641Z,100335.91
2022-07-27T18:13:57.491Z,100329.84
2022-07-27T18:16:58.914Z,100324.16
2022-07-27T18:20:01.266Z,100325.03
2022-07-27T18:23:02.731Z,100330.03
2022-07-27T18:26:04.516Z,100334.59
2022-07-27T18:29:06.391Z,100343.28
2022-07-27T18:32:07.818Z,100351.69
2022-07-27T18:35:09.389Z,100364.50
2022-07-27T18:38:11.451Z,100361.38
2022-07-27T18:41:13.483Z,100368.78
2022-07-27T18:44:14.892Z,100365.22
2022-07-27T18:47:16.398Z,100365.94
2022-07-27T18:50:17.932Z,100384.09
2022-07-27T18:53:19.381Z,100382.09
2022-07-27T18:56:21.403Z,100381.78
2022-07-27T18:59:23.203Z,100383.34
2022-07-27T19:02:24.684Z,100390.13
2022-07-27T19:05:40.598Z,100386.03
2022-07-27T19:08:44.262Z,100392.22
2022-07-27T19:11:45.709Z,100393.88
2022-07-27T19:14:50.153Z,100402.09
2022-07-27T19:17:52.688Z,100396.56
2022-07-27T19:20:54.332Z,100412.28
2022-07-27T19:23:55.832Z,100408.84
2022-07-27T19:26:57.408Z,100414.06
2022-07-27T19:29:58.810Z,100416.84
2022-07-27T19:33:00.413Z,100422.75
2022-07-27T19:36:01.853Z,100425.72
2022-07-27T19:39:07.760Z,100428.22
2022-07-27T19:42:09.683Z,100434.88
2022-07-27T19:45:11.152Z,100426.72
2022-07-27T19:48:12.693Z,100430.34
2022-07-27T19:51:15.069Z,100424.66
2022-07-27T19:54:16.791Z,100427.44
2022-07-27T19:57:18.358Z,100430.91
2022-07-27T20:00:20.126Z,100440.19
2022-07-27T20:03:21.762Z,100431.16
2022-07-27T20:06:24.320Z,100441.78
2022-07-27T20:09:28.634Z,100444.03
2022-07-27T20:12:30.514Z,100440.47
2022-07-27T20:15:32.362Z,100440.75
2022-07-27T20:18:35.519Z,100435.56
2022-07-27T20:21:38.850Z,100441.03
2022-07-27T20:24:40.266Z,100441.16
2022-07-27T20:27:42.617Z,100448.38
2022-07-27T20:30:44.192Z,100451.28
2022-07-27T20:33:45.709Z,100441.63
2022-07-27T20:36:48.180Z,100445.22
2022-07-27T20:39:49.817Z,100446.72
2022-07-27T20:42:51.382Z,100447.84
2022-07-27T20:45:54.071Z,100443.47
2022-07-27T20:48:55.689Z,100434.34
2022-07-27T20:51:57.216Z,100437.38
2022-07-27T20:54:58.630Z,100436.28
2022-07-27T20:58:00.150Z,100434.34
2022-07-27T21:01:01.727Z,100428.25
2022-07-27T21:04:03.282Z,100436.19
2022-07-27T21:07:04.709Z,100434.22
2022-07-27T21:10:06.946Z,100438.00
2022-07-27T21:13:08.497Z,100441.06
2022-07-27T21:16:09.938Z,100436.34
2022-07-27T21:19:12.182Z,100440.00
2022-07-27T21:22:13.817Z,100440.75
2022-07-27T21:25:16.258Z,100435.00
2022-07-27T21:28:18.637Z,100428.78
2022-07-27T21:31:24.820Z,100432.69
2022-07-27T21:34:26.408Z,100423.63
2022-07-27T21:37:27.824Z,100428.03
2022-07-27T21:40:29.456Z,100439.97
2022-07-27T21:43:31.840Z,100437.78
2022-07-27T21:46:33.376Z,100445.56
2022-07-27T21:49:34.939Z,100450.44
2022-07-27T21:52:36.415Z,100445.47
2022-07-27T21:55:39.034Z,100437.78
2022-07-27T21:58:41.516Z,100438.28
2022-07-27T22:01:43.197Z,100437.81
2022-07-27T22:04:44.645Z,100445.75
2022-07-27T22:07:46.074Z,100432.34
2022-07-27T22:10:47.502Z,100430.09
2022-07-27T22:13:48.934Z,100445.34
2022-07-27T22:16:50.502Z,100443.88
2022-07-27T22:19:52.565Z,100440.81
2022-07-27T22:22:54.051Z,100446.91
2022-07-27T22:25:55.619Z,100446.31
2022-07-27T22:28:59.538Z,100447.50
2022-07-27T22:32:01.079Z,100452.03
2022-07-27T22:35:03.386Z,100449.19
2022-07-27T22:38:04.975Z,100450.44
2022-07-27T22:41:06.798Z,100459.91
2022-07-27T22:44:08.232Z,100459.34
2022-07-27T22:47:10.306Z,100458.47
2022-07-27T22:50:13.936Z,100468.50
2022-07-27T22:53:19.715Z,100472.00
2022-07-27T22:56:21.410Z,100469.97
2022-07-27T22:59:22.919Z,100469.19
2022-07-27T23:02:24.388Z,100474.91
2022-07-27T23:05:25.858Z,100472.78
2022-07-27T23:08:27.312Z,100477.06
2022-07-27T23:11:28.856Z,100474.81
2022-07-27T23:14:30.664Z,100471.88
2022-07-27T23:17:32.085Z,100468.25
2022-07-27T23:20:33.647Z,100470.47
2022-07-27T23:23:35.948Z,100463.88
2022-07-27T23:26:43.071Z,100457.53
2022-07-27T23:29:44.838Z,100456.78
2022-07-27T23:32:46.456Z,100452.63
2022-07-27T23:35:47.900Z,100461.53
2022-07-27T23:38:49.363Z,100459.22
2022-07-27T23:41:50.825Z,100457.91
2022-07-27T23:44:52.789Z,100448.13
2022-07-27T23:47:54.909Z,100451.16
2022-07-27T23:50:56.638Z,100446.03
2022-07-27T23:53:58.073Z,100447.63
2022-07-27T23:56:59.480Z,100446.19
